createdAt,value
2018-02-22T00:02:14.023Z,26.17
2018-02-22T00:04:43.296Z,24.40
2018-02-22T00:07:11.907Z,22.27
2018-02-22T00:09:40.557Z,25.10
2018-02-22T00:12:11.715Z,23.67
2018-02-22T00:14:40.430Z,26.03
2018-02-22T00:17:08.269Z,24.20
2018-02-22T00:19:36.832Z,27.63
2018-02-22T00:22:05.256Z,21.67
2018-02-22T00:24:35.137Z,25.47
2018-02-22T00:27:03.666Z,22.70
2018-02-22T00:29:32.464Z,22.00
2018-02-22T00:32:00.356Z,22.33
2018-02-22T00:34:29.486Z,27.27
2018-02-22T00:36:59.065Z,23.57
2018-02-22T00:39:28.372Z,24.47
2018-02-22T00:41:57.133Z,23.43
2018-02-22T00:44:24.842Z,24.57
2018-02-22T00:46:52.526Z,23.80
2018-02-22T00:49:21.442Z,23.27
2018-02-22T00:51:51.435Z,23.23
2018-02-22T00:54:20.909Z,23.23
2018-02-22T00:56:49.370Z,26.23
2018-02-22T00:59:18.706Z,26.33
2018-02-22T01:01:48.843Z,27.23
2018-02-22T01:04:18.405Z,22.47
2018-02-22T01:06:47.399Z,20.77
2018-02-22T01:09:15.718Z,21.83
2018-02-22T01:11:46.139Z,22.40
2018-02-22T01:14:16.877Z,23.80
2018-02-22T01:16:46.694Z,19.70
2018-02-22T01:19:15.681Z,23.43
2018-02-22T01:21:43.355Z,21.60
2018-02-22T01:24:11.053Z,22.97
2018-02-22T01:26:39.315Z,20.80
2018-02-22T01:29:07.011Z,21.60
2018-02-22T01:31:35.648Z,23.53
2018-02-22T01:34:07.387Z,22.97
2018-02-22T01:36:36.573Z,24.10
2018-02-22T01:39:05.521Z,21.47
2018-02-22T01:41:33.198Z,22.60
2018-02-22T01:44:02.156Z,22.33
2018-02-22T01:46:30.771Z,22.07
2018-02-22T01:49:00.191Z,21.90
2018-02-22T01:51:28.643Z,21.97
2018-02-22T01:53:56.323Z,26.73
2018-02-22T01:56:24.382Z,23.77
2018-02-22T01:58:53.530Z,23.63
2018-02-22T02:01:21.190Z,23.40
2018-02-22T02:03:50.288Z,23.47
2018-02-22T02:06:18.900Z,21.80
2018-02-22T02:08:48.071Z,23.47
2018-02-22T02:11:17.202Z,23.17
2018-02-22T02:13:46.184Z,20.97
2018-02-22T02:16:15.102Z,24.77
2018-02-22T02:18:43.391Z,22.10
2018-02-22T02:21:12.008Z,23.30
2018-02-22T02:23:41.468Z,21.00
2018-02-22T02:26:11.126Z,22.27
2018-02-22T02:31:14.177Z,23.67
2018-02-22T02:33:41.918Z,22.83
2018-02-22T02:36:11.932Z,23.40
2018-02-22T02:38:40.229Z,22.00
2018-02-22T02:41:07.919Z,21.20
2018-02-22T02:43:36.432Z,23.67
2018-02-22T02:46:04.680Z,24.13
2018-02-22T02:48:33.325Z,25.83
2018-02-22T02:51:01.002Z,24.53
2018-02-22T02:53:28.672Z,22.83
2018-02-22T02:55:56.358Z,21.93
2018-02-22T02:58:25.373Z,24.23
2018-02-22T03:00:53.054Z,22.10
2018-02-22T03:03:21.284Z,22.47
2018-02-22T03:05:49.309Z,21.93
2018-02-22T03:08:18.346Z,24.80
2018-02-22T03:10:47.281Z,26.07
2018-02-22T03:13:15.704Z,25.33
2018-02-22T03:15:43.582Z,23.93
2018-02-22T03:18:11.258Z,24.27
2018-02-22T03:20:38.945Z,24.43
2018-02-22T03:23:07.701Z,24.93
2018-02-22T03:25:35.859Z,24.83
2018-02-22T03:28:05.715Z,25.90
2018-02-22T03:30:34.433Z,22.60
2018-02-22T03:33:02.415Z,24.10
2018-02-22T03:35:34.601Z,26.17
2018-02-22T03:38:03.467Z,25.30
2018-02-22T03:40:31.218Z,25.53
2018-02-22T03:42:58.919Z,29.20
2018-02-22T03:45:26.811Z,25.80
2018-02-22T03:47:55.415Z,27.97
2018-02-22T03:50:23.999Z,27.30
2018-02-22T03:52:52.051Z,26.47
2018-02-22T03:55:20.534Z,26.47
2018-02-22T03:57:48.954Z,25.60
2018-02-22T04:00:16.649Z,27.93
2018-02-22T04:02:45.376Z,28.30
2018-02-22T04:05:14.793Z,25.70
2018-02-22T04:07:43.232Z,26.27
2018-02-22T04:10:12.180Z,27.63
2018-02-22T04:12:40.054Z,26.20
2018-02-22T04:15:07.996Z,28.57
2018-02-22T04:17:37.259Z,25.97
2018-02-22T04:20:06.300Z,25.77
2018-02-22T04:22:34.765Z,26.00
2018-02-22T04:25:04.084Z,26.67
2018-02-22T04:27:32.777Z,24.77
2018-02-22T04:30:00.764Z,26.70
2018-02-22T04:32:29.252Z,28.23
2018-02-22T04:34:57.178Z,28.07
2018-02-22T04:37:24.851Z,29.67
2018-02-22T04:39:52.531Z,26.83
2018-02-22T04:42:20.181Z,31.00
2018-02-22T04:44:47.853Z,25.70
2018-02-22T04:47:15.578Z,26.80
2018-02-22T04:49:43.248Z,27.90
2018-02-22T04:52:10.927Z,27.87
2018-02-22T04:54:38.837Z,28.83
2018-02-22T04:57:06.519Z,28.23
2018-02-22T04:59:35.068Z,29.00
2018-02-22T05:02:02.746Z,30.43
2018-02-22T05:04:30.423Z,26.77
2018-02-22T05:06:58.096Z,30.83
2018-02-22T05:09:25.778Z,27.00
2018-02-22T05:11:53.448Z,32.93
2018-02-22T05:14:21.916Z,32.57
2018-02-22T05:16:49.577Z,28.50
2018-02-22T05:19:17.251Z,29.40
2018-02-22T05:21:44.925Z,27.60
2018-02-22T05:24:14.748Z,28.57
2018-02-22T05:26:43.187Z,27.93
2018-02-22T05:29:10.820Z,33.03
2018-02-22T05:31:38.416Z,28.57
2018-02-22T05:34:06.094Z,27.03
2018-02-22T05:36:33.756Z,26.17
2018-02-22T05:39:01.419Z,29.63
2018-02-22T05:41:29.024Z,29.30
2018-02-22T05:43:56.715Z,33.20
2018-02-22T05:46:25.612Z,29.50
2018-02-22T05:48:53.271Z,29.47
2018-02-22T05:51:20.942Z,30.73
2018-02-22T05:53:48.603Z,30.87
2018-02-22T05:56:16.284Z,31.07
2018-02-22T05:58:43.978Z,30.93
2018-02-22T06:01:12.423Z,29.27
2018-02-22T06:03:40.041Z,31.40
2018-02-22T06:06:07.712Z,32.13
2018-02-22T06:08:35.403Z,29.87
2018-02-22T06:11:03.098Z,32.70
2018-02-22T06:13:31.532Z,32.80
2018-02-22T06:15:59.428Z,34.93
2018-02-22T06:18:27.116Z,33.43
2018-02-22T06:20:55.548Z,39.37
2018-02-22T06:23:23.225Z,33.53
2018-02-22T06:25:50.863Z,37.67
2018-02-22T06:28:18.539Z,34.40
2018-02-22T06:30:46.247Z,32.70
2018-02-22T06:33:14.719Z,30.70
2018-02-22T06:35:42.383Z,35.40
2018-02-22T06:38:10.048Z,32.97
2018-02-22T06:40:37.739Z,37.30
2018-02-22T06:43:05.400Z,35.37
2018-02-22T06:45:35.041Z,31.50
2018-02-22T06:48:02.711Z,34.97
2018-02-22T06:50:31.139Z,40.37
2018-02-22T06:52:59.616Z,44.77
2018-02-22T06:55:27.286Z,42.03
2018-02-22T06:57:55.764Z,36.83
2018-02-22T07:00:23.417Z,35.00
2018-02-22T07:02:51.095Z,30.87
2018-02-22T07:05:19.532Z,30.93
2018-02-22T07:07:47.195Z,30.70
2018-02-22T07:10:14.856Z,30.37
2018-02-22T07:12:42.544Z,28.43
2018-02-22T07:15:10.390Z,30.00
2018-02-22T07:17:38.061Z,25.23
2018-02-22T07:20:05.761Z,28.30
2018-02-22T07:22:34.200Z,38.00
2018-02-22T07:25:01.887Z,28.63
2018-02-22T07:27:29.612Z,30.03
2018-02-22T07:29:57.331Z,32.93
2018-02-22T07:32:24.988Z,29.70
2018-02-22T07:34:53.425Z,30.63
2018-02-22T07:37:21.104Z,31.33
2018-02-22T07:39:48.794Z,30.50
2018-02-22T07:42:16.454Z,30.57
2018-02-22T07:44:44.216Z,33.63
2018-02-22T07:47:11.877Z,29.40
2018-02-22T07:49:39.526Z,29.90
2018-02-22T07:52:07.192Z,25.80
2018-02-22T07:54:34.876Z,25.17
2018-02-22T07:57:03.359Z,24.43
2018-02-22T07:59:31.084Z,25.00
2018-02-22T08:01:58.783Z,30.27
2018-02-22T08:04:26.461Z,40.40
2018-02-22T08:06:54.900Z,28.50
2018-02-22T08:09:22.672Z,31.27
2018-02-22T08:11:50.335Z,32.80
2018-02-22T08:14:18.975Z,30.77
2018-02-22T08:16:46.615Z,29.63
2018-02-22T08:19:15.000Z,29.53
2018-02-22T08:21:43.488Z,35.07
2018-02-22T08:24:11.160Z,29.57
2018-02-22T08:26:38.919Z,30.73
2018-02-22T08:29:07.365Z,29.10
2018-02-22T08:31:35.037Z,37.23
2018-02-22T08:34:02.987Z,31.10
2018-02-22T08:36:30.878Z,33.93
2018-02-22T08:38:58.536Z,33.43
2018-02-22T08:41:26.688Z,31.90
2018-02-22T08:43:54.370Z,28.30
2018-02-22T08:46:22.007Z,29.57
2018-02-22T08:48:49.704Z,27.40
2018-02-22T08:51:17.385Z,29.80
2018-02-22T08:53:45.059Z,29.03
2018-02-22T08:56:12.745Z,30.63
2018-02-22T08:58:40.408Z,32.93
2018-02-22T09:01:08.062Z,30.50
2018-02-22T09:03:35.722Z,29.77
2018-02-22T09:06:03.531Z,34.70
2018-02-22T09:08:31.212Z,31.80
2018-02-22T09:10:58.874Z,33.83
2018-02-22T09:13:26.510Z,33.23
2018-02-22T09:15:54.206Z,31.73
2018-02-22T09:18:21.892Z,29.13
2018-02-22T09:20:49.575Z,31.43
2018-02-22T09:23:17.270Z,32.03
2018-02-22T09:25:44.945Z,31.33
2018-02-22T09:28:12.624Z,32.20
2018-02-22T09:30:40.279Z,31.87
2018-02-22T09:33:07.953Z,36.93
2018-02-22T09:35:37.596Z,35.43
2018-02-22T09:38:05.277Z,36.53
2018-02-22T09:40:32.925Z,33.73
2018-02-22T09:43:00.615Z,37.33
2018-02-22T09:45:28.276Z,35.70
2018-02-22T09:47:55.952Z,36.40
2018-02-22T09:50:23.612Z,33.23
2018-02-22T09:52:51.267Z,35.00
2018-02-22T09:55:18.933Z,44.63
2018-02-22T09:57:46.610Z,42.03
2018-02-22T10:00:14.259Z,42.80
2018-02-22T10:02:41.928Z,40.87
2018-02-22T10:05:10.837Z,40.60
2018-02-22T10:07:38.504Z,45.97
2018-02-22T10:10:06.186Z,47.20
2018-02-22T10:12:33.840Z,42.67
2018-02-22T10:15:02.191Z,44.90
2018-02-22T10:17:29.851Z,44.43
2018-02-22T10:19:57.522Z,42.37
2018-02-22T10:22:25.205Z,42.93
2018-02-22T10:24:52.873Z,43.20
2018-02-22T10:27:20.630Z,41.93
2018-02-22T10:29:48.282Z,42.80
2018-02-22T10:32:15.952Z,41.20
2018-02-22T10:34:43.658Z,39.60
2018-02-22T10:37:11.328Z,40.13
2018-02-22T10:39:39.004Z,41.93
2018-02-22T10:42:06.664Z,39.40
2018-02-22T10:44:34.328Z,35.30
2018-02-22T10:47:02.019Z,37.80
2018-02-22T10:49:29.688Z,34.90
2018-02-22T10:51:57.366Z,37.77
2018-02-22T10:54:25.024Z,39.03
2018-02-22T10:56:52.691Z,36.70
2018-02-22T10:59:20.348Z,35.37
2018-02-22T11:01:53.690Z,35.33
2018-02-22T11:04:21.350Z,35.13
2018-02-22T11:06:48.963Z,36.27
2018-02-22T11:09:16.634Z,35.00
2018-02-22T11:11:44.292Z,36.17
2018-02-22T11:14:11.952Z,42.03
2018-02-22T11:16:39.603Z,55.23
2018-02-22T11:19:07.285Z,39.77
2018-02-22T11:21:34.887Z,36.57
2018-02-22T11:24:02.548Z,33.80
2018-02-22T11:26:30.226Z,42.07
2018-02-22T11:28:57.900Z,34.83
2018-02-22T11:31:25.577Z,39.20
2018-02-22T11:33:53.242Z,39.47
2018-02-22T11:36:20.904Z,34.57
2018-02-22T11:38:48.579Z,38.57
2018-02-22T11:41:16.249Z,39.43
2018-02-22T11:43:43.921Z,39.83
2018-02-22T11:46:11.634Z,38.73
2018-02-22T11:48:39.309Z,38.00
2018-02-22T11:51:06.978Z,36.87
2018-02-22T11:53:34.654Z,33.07
2018-02-22T11:56:02.323Z,33.07
2018-02-22T11:58:29.992Z,35.20
2018-02-22T12:00:57.670Z,34.33
2018-02-22T12:03:25.338Z,32.47
2018-02-22T12:05:53.778Z,28.47
2018-02-22T12:08:21.460Z,27.63
2018-02-22T12:10:49.110Z,26.80
2018-02-22T12:13:16.769Z,25.93
2018-02-22T12:15:45.457Z,25.13
2018-02-22T12:18:13.129Z,23.50
2018-02-22T12:20:40.805Z,25.70
2018-02-22T12:23:08.474Z,24.63
2018-02-22T12:25:36.135Z,24.53
2018-02-22T12:28:03.797Z,22.83
2018-02-22T12:30:31.454Z,26.37
2018-02-22T12:32:59.128Z,27.70
2018-02-22T12:35:26.779Z,22.57
2018-02-22T12:37:54.422Z,23.23
2018-02-22T12:40:22.094Z,21.37
2018-02-22T12:42:49.726Z,25.23
2018-02-22T12:45:18.628Z,20.63
2018-02-22T12:47:46.310Z,21.40
2018-02-22T12:50:13.964Z,22.40
2018-02-22T12:52:41.601Z,21.73
2018-02-22T12:55:09.311Z,21.30
2018-02-22T12:57:36.998Z,19.40
2018-02-22T13:00:05.436Z,21.87
2018-02-22T13:02:33.081Z,19.87
2018-02-22T13:05:00.760Z,26.40
2018-02-22T13:07:28.462Z,22.10
2018-02-22T13:09:56.071Z,24.80
2018-02-22T13:12:23.750Z,19.60
2018-02-22T13:14:51.481Z,25.83
2018-02-22T13:17:19.164Z,21.50
2018-02-22T13:19:47.716Z,22.77
2018-02-22T13:22:15.354Z,22.17
2018-02-22T13:24:43.013Z,22.63
2018-02-22T13:27:10.690Z,23.83
2018-02-22T13:29:38.367Z,18.60
2018-02-22T13:32:06.813Z,25.43
2018-02-22T13:34:36.234Z,21.93
2018-02-22T13:37:15.485Z,22.93
2018-02-22T13:39:43.921Z,22.33
2018-02-22T13:42:11.630Z,19.97
2018-02-22T13:44:53.112Z,18.63
2018-02-22T13:47:20.778Z,20.60
2018-02-22T13:50:00.246Z,21.27
2018-02-22T13:52:27.987Z,19.70
2018-02-22T13:54:55.658Z,20.93
2018-02-22T13:57:24.082Z,21.73
2018-02-22T13:59:51.747Z,19.17
2018-02-22T14:02:25.095Z,20.97
2018-02-22T14:04:53.578Z,21.63
2018-02-22T14:07:21.224Z,24.40
2018-02-22T14:09:48.902Z,21.90
2018-02-22T14:12:16.563Z,22.30
2018-02-22T14:14:45.203Z,19.60
2018-02-22T14:17:12.823Z,21.10
2018-02-22T14:19:40.467Z,20.10
2018-02-22T14:22:08.129Z,20.23
2018-02-22T14:24:36.577Z,20.83
2018-02-22T14:27:04.231Z,19.13
2018-02-22T14:29:31.912Z,21.60
2018-02-22T14:31:59.557Z,18.80
2018-02-22T14:34:27.266Z,18.10
2018-02-22T14:36:55.675Z,16.67
2018-02-22T14:39:23.355Z,16.03
2018-02-22T14:41:51.024Z,16.57
2018-02-22T14:44:19.928Z,16.70
2018-02-22T14:46:47.769Z,17.73
2018-02-22T14:49:15.432Z,19.17
2018-02-22T14:51:43.117Z,17.03
2018-02-22T14:54:10.782Z,18.03
2018-02-22T14:56:38.453Z,20.73
2018-02-22T14:59:06.143Z,16.50
2018-02-22T15:01:34.588Z,17.90
2018-02-22T15:04:02.242Z,19.83
2018-02-22T15:06:29.910Z,18.90
2018-02-22T15:08:57.590Z,17.17
2018-02-22T15:11:25.282Z,16.73
2018-02-22T15:13:53.710Z,19.60
2018-02-22T15:16:21.398Z,18.27
2018-02-22T15:18:49.077Z,21.80
2018-02-22T15:21:16.753Z,19.67
2018-02-22T15:23:45.212Z,20.33
2018-02-22T15:26:12.885Z,17.50
2018-02-22T15:28:40.578Z,19.37
2018-02-22T15:31:09.020Z,17.17
2018-02-22T15:33:36.707Z,18.53
2018-02-22T15:36:06.410Z,21.20
2018-02-22T15:38:34.119Z,16.87
2018-02-22T15:41:01.793Z,18.77
2018-02-22T15:43:29.442Z,17.43
2018-02-22T15:45:57.120Z,18.30
2018-02-22T15:48:24.808Z,22.10
2018-02-22T15:50:52.479Z,23.37
2018-02-22T15:53:20.150Z,21.53
2018-02-22T15:55:47.849Z,18.63
2018-02-22T15:58:15.518Z,19.33
2018-02-22T16:00:43.114Z,19.20
2018-02-22T16:03:10.770Z,18.87
2018-02-22T16:05:38.650Z,17.27
2018-02-22T16:08:06.309Z,20.03
2018-02-22T16:10:33.973Z,16.23
2018-02-22T16:13:01.652Z,20.13
2018-02-22T16:15:29.329Z,16.47
2018-02-22T16:17:57.775Z,16.73
2018-02-22T16:20:25.431Z,18.53
2018-02-22T16:22:53.060Z,17.93
2018-02-22T16:25:20.712Z,14.27
2018-02-22T16:27:49.177Z,18.90
2018-02-22T16:30:16.852Z,17.10
2018-02-22T16:32:45.291Z,19.30
2018-02-22T16:35:13.035Z,17.57
2018-02-22T16:37:40.695Z,19.17
2018-02-22T16:40:08.324Z,18.97
2018-02-22T16:42:35.987Z,15.43
2018-02-22T16:45:04.431Z,18.47
2018-02-22T16:47:32.111Z,16.43
2018-02-22T16:49:59.775Z,16.10
2018-02-22T16:52:27.459Z,19.40
2018-02-22T16:54:55.108Z,17.17
2018-02-22T16:57:22.766Z,18.83
2018-02-22T16:59:50.441Z,16.70
2018-02-22T17:02:18.132Z,19.60
2018-02-22T17:04:45.948Z,17.10
2018-02-22T17:07:13.634Z,18.83
2018-02-22T17:09:41.275Z,21.63
2018-02-22T17:12:08.997Z,20.93
2018-02-22T17:14:36.645Z,22.43
2018-02-22T17:17:05.089Z,20.93
2018-02-22T17:19:32.760Z,19.73
2018-02-22T17:22:00.428Z,21.17
2018-02-22T17:24:28.115Z,19.70
2018-02-22T17:27:01.269Z,19.27
2018-02-22T17:29:34.559Z,16.50
2018-02-22T17:32:07.719Z,15.17
2018-02-22T17:34:35.401Z,15.20
2018-02-22T17:37:04.695Z,13.93
2018-02-22T17:39:34.846Z,14.97
2018-02-22T17:42:02.523Z,16.27
2018-02-22T17:44:31.089Z,15.67
2018-02-22T17:46:58.718Z,15.23
2018-02-22T17:49:26.396Z,13.97
2018-02-22T17:51:54.051Z,15.03
2018-02-22T17:54:21.734Z,15.07
2018-02-22T17:56:49.636Z,15.67
2018-02-22T17:59:17.346Z,13.13
2018-02-22T18:01:45.034Z,13.17
2018-02-22T18:04:12.730Z,14.63
2018-02-22T18:06:40.419Z,15.47
2018-02-22T18:09:08.045Z,18.17
2018-02-22T18:11:35.753Z,17.07
2018-02-22T18:14:03.399Z,13.10
2018-02-22T18:16:31.064Z,12.17
2018-02-22T18:18:59.503Z,14.03
2018-02-22T18:21:27.168Z,12.67
2018-02-22T18:23:54.830Z,14.33
2018-02-22T18:26:22.501Z,13.13
2018-02-22T18:28:50.194Z,11.33
2018-02-22T18:31:18.636Z,13.40
2018-02-22T18:33:46.286Z,12.33
2018-02-22T18:36:14.170Z,11.60
2018-02-22T18:38:47.471Z,10.40
2018-02-22T18:41:16.902Z,10.37
2018-02-22T18:43:44.607Z,9.57
2018-02-22T18:46:12.284Z,11.07
2018-02-22T18:48:39.941Z,9.37
2018-02-22T18:51:07.592Z,10.10
2018-02-22T18:53:35.249Z,11.63
2018-02-22T18:56:03.006Z,11.30
2018-02-22T18:58:30.649Z,10.57
2018-02-22T19:00:58.248Z,10.47
2018-02-22T19:03:25.885Z,15.67
2018-02-22T19:05:53.485Z,10.00
2018-02-22T19:08:21.088Z,12.33
2018-02-22T19:10:48.703Z,8.77
2018-02-22T19:13:16.279Z,9.93
2018-02-22T19:15:43.935Z,9.93
2018-02-22T19:18:11.618Z,9.87
2018-02-22T19:20:39.305Z,9.33
2018-02-22T19:23:06.948Z,10.47
2018-02-22T19:25:34.701Z,10.20
2018-02-22T19:28:02.317Z,13.30
2018-02-22T19:30:29.967Z,12.03
2018-02-22T19:32:57.629Z,11.27
2018-02-22T19:35:25.326Z,11.43
2018-02-22T19:37:52.999Z,11.17
2018-02-22T19:40:20.660Z,13.90
2018-02-22T19:42:48.255Z,11.87
2018-02-22T19:45:15.928Z,12.27
2018-02-22T19:47:43.585Z,13.43
2018-02-22T19:50:12.035Z,11.53
2018-02-22T19:52:39.725Z,14.33
2018-02-22T19:55:07.543Z,11.93
2018-02-22T19:57:35.231Z,12.87
2018-02-22T20:00:02.946Z,15.67
2018-02-22T20:02:30.553Z,14.53
2018-02-22T20:04:58.232Z,11.67
2018-02-22T20:07:25.912Z,14.73
2018-02-22T20:09:54.331Z,11.97
2018-02-22T20:12:22.009Z,14.10
2018-02-22T20:14:49.615Z,14.07
2018-02-22T20:17:17.269Z,12.97
2018-02-22T20:19:44.939Z,13.47
2018-02-22T20:22:12.599Z,14.07
2018-02-22T20:24:40.447Z,14.07
2018-02-22T20:27:08.110Z,13.47
2018-02-22T20:29:35.707Z,13.50
2018-02-22T20:32:03.360Z,15.57
2018-02-22T20:34:30.947Z,13.63
2018-02-22T20:36:58.576Z,13.83
2018-02-22T20:39:26.176Z,15.23
2018-02-22T20:41:53.812Z,13.57
2018-02-22T20:44:22.179Z,14.57
2018-02-22T20:46:49.873Z,17.43
2018-02-22T20:49:17.517Z,17.17
2018-02-22T20:51:45.246Z,15.13
2018-02-22T20:54:13.027Z,15.30
2018-02-22T20:56:40.671Z,14.77
2018-02-22T20:59:08.341Z,17.83
2018-02-22T21:01:35.998Z,17.00
2018-02-22T21:04:04.301Z,18.60
2018-02-22T21:06:31.961Z,18.23
2018-02-22T21:08:59.632Z,17.47
2018-02-22T21:11:27.296Z,18.73
2018-02-22T21:13:55.006Z,20.30
2018-02-22T21:16:22.925Z,20.63
2018-02-22T21:18:50.598Z,19.80
2018-02-22T21:21:19.049Z,19.67
2018-02-22T21:23:46.730Z,19.93
2018-02-22T21:26:14.395Z,20.20
2018-02-22T21:28:42.057Z,17.37
2018-02-22T21:31:09.705Z,19.13
2018-02-22T21:33:37.379Z,18.77
2018-02-22T21:36:05.051Z,18.77
2018-02-22T21:38:32.706Z,18.03
2018-02-22T21:41:00.306Z,20.73
2018-02-22T21:43:27.896Z,20.60
2018-02-22T21:45:56.619Z,19.53
2018-02-22T21:48:24.225Z,21.27
2018-02-22T21:50:52.024Z,20.40
2018-02-22T21:53:19.611Z,20.80
2018-02-22T21:55:47.283Z,21.60
2018-02-22T21:58:14.950Z,24.53
2018-02-22T22:00:42.628Z,23.63
2018-02-22T22:03:11.058Z,25.47
2018-02-22T22:05:38.736Z,26.70
2018-02-22T22:08:06.421Z,32.77
2018-02-22T22:10:34.144Z,25.77
2018-02-22T22:13:01.771Z,23.97
2018-02-22T22:15:29.570Z,24.37
2018-02-22T22:17:57.222Z,25.23
2018-02-22T22:20:26.223Z,25.63
2018-02-22T22:22:53.828Z,25.60
2018-02-22T22:25:21.516Z,27.20
2018-02-22T22:27:49.110Z,25.43
2018-02-22T22:30:16.752Z,26.97
2018-02-22T22:32:44.423Z,28.80
2018-02-22T22:35:12.121Z,27.60
2018-02-22T22:37:39.774Z,27.47
2018-02-22T22:40:07.460Z,30.90
2018-02-22T22:42:35.133Z,28.13
2018-02-22T22:45:03.978Z,25.73
2018-02-22T22:47:31.570Z,29.33
2018-02-22T22:49:59.186Z,28.57
2018-02-22T22:52:26.776Z,28.80
2018-02-22T22:54:54.420Z,31.43
2018-02-22T22:57:22.190Z,27.33
2018-02-22T22:59:49.867Z,29.67
2018-02-22T23:02:17.545Z,28.60
2018-02-22T23:04:45.195Z,27.70
2018-02-22T23:07:12.865Z,29.53
2018-02-22T23:09:40.556Z,29.47
2018-02-22T23:12:08.244Z,31.20
2018-02-22T23:14:36.843Z,30.27
2018-02-22T23:17:04.522Z,29.23
2018-02-22T23:19:32.155Z,28.57
2018-02-22T23:21:59.829Z,29.33
2018-02-22T23:24:27.529Z,32.03
2018-02-22T23:26:55.217Z,33.53
2018-02-22T23:29:22.878Z,32.27
2018-02-22T23:31:50.511Z,32.03
2018-02-22T23:34:18.247Z,29.60
2018-02-22T23:36:45.921Z,32.40
2018-02-22T23:39:13.644Z,31.17
2018-02-22T23:41:43.190Z,32.60
2018-02-22T23:44:10.909Z,30.50
2018-02-22T23:46:39.317Z,28.60
2018-02-22T23:49:06.917Z,31.27
2018-02-22T23:51:34.521Z,30.43
2018-02-22T23:54:03.060Z,30.70
2018-02-22T23:56:30.798Z,30.77
2018-02-22T23:58:58.476Z,32.00
